createdAt,value
2022-10-25T00:03:56.731Z,100.00
2022-10-25T00:08:59.596Z,100.00
2022-10-25T00:14:20.668Z,100.00
2022-10-25T00:19:23.670Z,100.00
2022-10-25T00:24:26.507Z,100.00
2022-10-25T00:29:29.387Z,100.00
2022-10-25T00:34:32.399Z,100.00
2022-10-25T00:39:35.200Z,100.00
2022-10-25T00:44:41.047Z,100.00
2022-10-25T00:49:44.321Z,100.00
2022-10-25T00:54:50.546Z,100.00
2022-10-25T00:59:53.899Z,100.00
2022-10-25T01:04:56.867Z,100.00
2022-10-25T01:09:59.734Z,100.00
2022-10-25T01:15:03.024Z,100.00
2022-10-25T01:20:45.859Z,100.00
2022-10-25T01:25:55.688Z,100.00
2022-10-25T01:31:32.970Z,100.00
2022-10-25T01:36:43.733Z,100.00
2022-10-25T01:42:00.431Z,100.00
2022-10-25T01:47:06.731Z,100.00
2022-10-25T01:52:09.548Z,100.00
2022-10-25T01:58:11.415Z,100.00
2022-10-25T02:03:22.747Z,100.00
2022-10-25T02:08:50.546Z,100.00
2022-10-25T02:14:15.539Z,100.00
2022-10-25T02:19:23.658Z,100.00
2022-10-25T02:24:28.414Z,100.00
2022-10-25T02:29:32.729Z,100.00
2022-10-25T02:34:35.463Z,100.00
2022-10-25T02:39:38.288Z,100.00
2022-10-25T02:44:58.905Z,100.00
2022-10-25T02:50:01.776Z,100.00
2022-10-25T02:55:04.884Z,100.00
2022-10-25T03:00:08.548Z,100.00
2022-10-25T03:05:11.355Z,100.00
2022-10-25T03:10:14.124Z,100.00
2022-10-25T03:15:16.894Z,100.00
2022-10-25T03:20:19.803Z,100.00
2022-10-25T03:25:22.526Z,100.00
2022-10-25T03:30:26.343Z,100.00
2022-10-25T03:35:29.158Z,100.00
2022-10-25T03:40:32.134Z,100.00
2022-10-25T03:45:34.845Z,100.00
2022-10-25T03:50:37.742Z,100.00
2022-10-25T03:55:40.566Z,100.00
2022-10-25T04:00:43.462Z,100.00
2022-10-25T04:05:46.294Z,100.00
2022-10-25T04:10:49.006Z,100.00
2022-10-25T04:15:51.754Z,100.00
2022-10-25T04:20:58.467Z,100.00
2022-10-25T04:26:01.251Z,100.00
2022-10-25T04:31:04.280Z,100.00
2022-10-25T04:36:07.338Z,100.00
2022-10-25T04:41:10.256Z,100.00
2022-10-25T04:46:13.628Z,100.00
2022-10-25T04:51:16.626Z,100.00
2022-10-25T04:56:19.386Z,100.00
2022-10-25T05:01:22.271Z,100.00
2022-10-25T05:06:26.852Z,100.00
2022-10-25T05:11:29.790Z,100.00
2022-10-25T05:16:35.131Z,100.00
2022-10-25T05:21:37.997Z,100.00
2022-10-25T05:26:40.705Z,100.00
2022-10-25T05:31:44.083Z,100.00
2022-10-25T05:36:47.010Z,100.00
2022-10-25T05:41:50.231Z,100.00
2022-10-25T05:46:53.247Z,100.00
2022-10-25T05:51:56.035Z,100.00
2022-10-25T05:56:58.878Z,100.00
2022-10-25T06:02:01.836Z,100.00
2022-10-25T06:07:04.990Z,99.64
2022-10-25T06:12:09.603Z,99.22
2022-10-25T06:17:13.776Z,98.99
2022-10-25T06:22:16.573Z,98.87
2022-10-25T06:27:19.372Z,98.94
2022-10-25T06:32:21.914Z,98.80
2022-10-25T06:37:24.900Z,99.06
2022-10-25T06:42:27.588Z,99.00
2022-10-25T06:47:30.345Z,99.07
2022-10-25T06:52:33.167Z,98.83
2022-10-25T06:57:35.905Z,98.71
2022-10-25T07:02:38.667Z,98.73
2022-10-25T07:07:41.484Z,98.40
2022-10-25T07:12:44.289Z,97.97
2022-10-25T07:17:47.363Z,97.73
2022-10-25T07:22:50.317Z,97.23
2022-10-25T07:27:53.226Z,96.87
2022-10-25T07:32:56.456Z,96.77
2022-10-25T07:37:59.315Z,96.67
2022-10-25T07:43:02.069Z,96.46
2022-10-25T07:48:05.305Z,96.15
2022-10-25T07:53:08.339Z,96.14
2022-10-25T07:58:12.122Z,95.93
2022-10-25T08:03:16.307Z,95.22
2022-10-25T08:08:20.959Z,94.75
2022-10-25T08:13:23.947Z,93.89
2022-10-25T08:18:26.885Z,93.56
2022-10-25T08:23:31.648Z,92.64
2022-10-25T08:28:34.676Z,92.38
2022-10-25T08:33:37.414Z,91.86
2022-10-25T08:38:40.173Z,91.83
2022-10-25T08:44:12.048Z,91.56
2022-10-25T08:49:44.200Z,91.22
2022-10-25T08:54:47.403Z,90.92
2022-10-25T08:59:55.285Z,90.67
2022-10-25T09:04:58.131Z,90.21
2022-10-25T09:10:00.859Z,89.96
2022-10-25T09:15:21.782Z,90.18
2022-10-25T09:20:33.001Z,89.95
2022-10-25T09:26:02.538Z,89.82
2022-10-25T09:31:08.281Z,89.02
2022-10-25T09:36:12.491Z,88.82
2022-10-25T09:41:24.842Z,88.64
2022-10-25T09:46:38.175Z,88.30
2022-10-25T09:51:57.566Z,87.93
2022-10-25T09:57:00.360Z,87.39
2022-10-25T10:02:03.732Z,86.04
2022-10-25T10:07:16.812Z,84.73
2022-10-25T10:12:51.570Z,84.19
2022-10-25T10:18:20.881Z,84.01
2022-10-25T10:23:24.454Z,84.94
2022-10-25T10:28:27.102Z,85.99
2022-10-25T10:33:32.392Z,86.74
2022-10-25T10:38:52.892Z,87.71
2022-10-25T10:44:14.508Z,87.70
2022-10-25T10:49:18.890Z,88.04
2022-10-25T10:54:25.467Z,87.70
2022-10-25T10:59:34.788Z,85.99
2022-10-25T11:04:55.217Z,84.43
2022-10-25T11:10:15.961Z,82.20
2022-10-25T11:15:18.750Z,81.36
2022-10-25T11:20:26.623Z,79.51
2022-10-25T11:25:38.589Z,78.83
2022-10-25T11:31:19.688Z,75.55
2022-10-25T11:36:48.943Z,72.85
2022-10-25T11:41:55.514Z,70.33
2022-10-25T11:47:32.351Z,71.31
2022-10-25T11:53:00.069Z,71.32
2022-10-25T11:58:30.358Z,71.47
2022-10-25T12:03:48.008Z,71.49
2022-10-25T12:09:09.518Z,72.00
2022-10-25T12:14:15.349Z,72.13
2022-10-25T12:19:24.580Z,69.42
2022-10-25T12:24:34.785Z,68.45
2022-10-25T12:29:41.439Z,68.28
2022-10-25T12:34:48.002Z,67.78
2022-10-25T12:39:52.337Z,68.27
2022-10-25T12:45:12.176Z,67.68
2022-10-25T12:50:50.636Z,67.63
2022-10-25T12:55:56.702Z,67.69
2022-10-25T13:01:21.317Z,67.63
2022-10-25T13:06:29.903Z,66.97
2022-10-25T13:11:42.166Z,66.93
2022-10-25T13:16:45.087Z,66.43
2022-10-25T13:21:53.888Z,65.78
2022-10-25T13:27:14.946Z,64.31
2022-10-25T13:32:20.325Z,65.17
2022-10-25T13:37:33.086Z,65.71
2022-10-25T13:42:37.707Z,65.55
2022-10-25T13:47:45.578Z,65.94
2022-10-25T13:52:56.015Z,65.67
2022-10-25T13:58:02.013Z,65.81
2022-10-25T14:03:13.091Z,65.66
2022-10-25T14:08:46.847Z,66.18
2022-10-25T14:13:58.294Z,66.91
2022-10-25T14:19:15.074Z,67.34
2022-10-25T14:24:19.561Z,66.98
2022-10-25T14:29:24.021Z,67.15
2022-10-25T14:34:28.547Z,67.23
2022-10-25T14:39:31.933Z,66.18
2022-10-25T14:44:46.731Z,66.28
2022-10-25T14:49:49.450Z,66.39
2022-10-25T14:54:59.573Z,66.85
2022-10-25T15:00:04.634Z,66.48
2022-10-25T15:05:17.363Z,67.00
2022-10-25T15:10:43.422Z,67.50
2022-10-25T15:15:47.986Z,68.01
2022-10-25T15:21:21.556Z,68.65
2022-10-25T15:26:34.623Z,69.44
2022-10-25T15:31:43.868Z,70.65
2022-10-25T15:36:46.932Z,71.07
2022-10-25T15:41:50.189Z,72.13
2022-10-25T15:46:52.845Z,72.89
2022-10-25T15:51:56.217Z,73.36
2022-10-25T15:56:58.997Z,73.85
2022-10-25T16:02:03.465Z,75.12
2022-10-25T16:07:06.186Z,75.61
2022-10-25T16:12:14.121Z,76.65
2022-10-25T16:17:16.890Z,77.20
2022-10-25T16:22:19.563Z,78.29
2022-10-25T16:27:22.362Z,78.86
2022-10-25T16:32:25.169Z,79.91
2022-10-25T16:37:27.956Z,80.49
2022-10-25T16:42:33.262Z,81.27
2022-10-25T16:47:39.680Z,82.17
2022-10-25T16:52:42.491Z,82.68
2022-10-25T16:57:45.781Z,83.15
2022-10-25T17:02:48.950Z,83.13
2022-10-25T17:07:52.203Z,83.19
2022-10-25T17:13:01.641Z,83.14
2022-10-25T17:18:04.783Z,83.59
2022-10-25T17:23:07.654Z,84.61
2022-10-25T17:28:10.426Z,85.62
2022-10-25T17:33:13.337Z,86.11
2022-10-25T17:38:16.150Z,86.64
2022-10-25T17:43:19.552Z,86.90
2022-10-25T17:48:22.447Z,86.91
2022-10-25T17:53:25.314Z,86.74
2022-10-25T17:58:28.083Z,86.48
2022-10-25T18:03:31.568Z,86.10
2022-10-25T18:08:36.416Z,85.83
2022-10-25T18:13:40.808Z,85.70
2022-10-25T18:18:43.684Z,86.09
2022-10-25T18:23:46.477Z,85.86
2022-10-25T18:28:50.170Z,86.31
2022-10-25T18:33:55.418Z,86.29
2022-10-25T18:38:58.272Z,86.30
2022-10-25T18:44:02.959Z,86.35
2022-10-25T18:49:05.781Z,85.79
2022-10-25T18:54:10.195Z,85.60
2022-10-25T18:59:13.070Z,85.03
2022-10-25T19:04:15.819Z,84.75
2022-10-25T19:09:18.551Z,84.37
2022-10-25T19:14:21.428Z,84.11
2022-10-25T19:19:24.047Z,83.72
2022-10-25T19:24:26.843Z,84.07
2022-10-25T19:29:29.543Z,84.21
2022-10-25T19:34:32.298Z,84.52
2022-10-25T19:39:36.052Z,84.80
2022-10-25T19:44:39.344Z,84.91
2022-10-25T19:49:42.353Z,85.16
2022-10-25T19:54:45.126Z,85.79
2022-10-25T19:59:47.913Z,86.39
2022-10-25T20:04:50.768Z,86.35
2022-10-25T20:09:53.708Z,86.61
2022-10-25T20:14:57.590Z,86.48
2022-10-25T20:20:00.390Z,86.46
2022-10-25T20:25:04.690Z,86.40
2022-10-25T20:30:07.837Z,86.48
2022-10-25T20:35:10.595Z,86.87
2022-10-25T20:40:13.406Z,87.32
2022-10-25T20:45:16.025Z,87.48
2022-10-25T20:50:18.759Z,87.58
2022-10-25T20:55:22.858Z,87.75
2022-10-25T21:00:25.625Z,88.11
2022-10-25T21:05:28.481Z,88.53
2022-10-25T21:10:31.273Z,89.01
2022-10-25T21:15:34.947Z,89.58
2022-10-25T21:20:37.720Z,90.03
2022-10-25T21:25:41.042Z,90.07
2022-10-25T21:30:46.005Z,90.61
2022-10-25T21:35:48.829Z,91.86
2022-10-25T21:40:51.692Z,93.78
2022-10-25T21:45:58.938Z,94.20
2022-10-25T21:51:01.887Z,93.74
2022-10-25T21:56:15.238Z,92.98
2022-10-25T22:01:21.669Z,91.52
2022-10-25T22:06:27.221Z,90.02
2022-10-25T22:11:32.678Z,88.62
2022-10-25T22:16:36.083Z,87.34
2022-10-25T22:21:39.929Z,85.43
2022-10-25T22:26:44.466Z,84.39
2022-10-25T22:31:47.246Z,84.37
2022-10-25T22:36:50.062Z,84.57
2022-10-25T22:41:53.921Z,84.80
2022-10-25T22:46:56.516Z,85.38
2022-10-25T22:51:59.538Z,85.56
2022-10-25T22:57:02.330Z,86.04
2022-10-25T23:02:05.091Z,86.63
2022-10-25T23:07:07.603Z,87.27
2022-10-25T23:12:10.324Z,87.96
2022-10-25T23:17:13.218Z,88.15
2022-10-25T23:22:16.063Z,89.02
2022-10-25T23:27:18.767Z,89.34
2022-10-25T23:32:21.536Z,89.95
2022-10-25T23:37:24.218Z,90.37
2022-10-25T23:42:26.978Z,90.64
2022-10-25T23:47:31.066Z,91.17
2022-10-25T23:52:34.036Z,91.40
2022-10-25T23:57:36.594Z,91.75
